Winstonville, MS (38781)

3:22 PM CDT on July 23, 2016 (GMT -0500)
WKXY North Cleveland | | Change Station
Active Advisory: Heat Advisory Active Notice: Public Information Statement

Elev 144 ft 33.79 °N, 90.72 °W | Updated 53 seconds ago

Clear
Clear
81.0 °F
Feels Like 88 °F
N
6.0
Wind Variable Wind from SE
Gusts 7.4 mph

Today
High -- | Low -- °F
--% Chance of Precip.
Yesterday
High -- | Low -- °F
Precip. -- in
Pressure 29.94 in
Visibility 10.0 miles
Clouds Clear
Heat Index 88 °F
Dew Point 76 °F
Humidity 86%
Rainfall 0.00 in
Snow Depth Not available.
6:08 AM 8:09 PM
Waning Gibbous, 83% visible
METAR KRNV 232015Z AUTO 16008KT 10SM CLR 28/25 A2994 RMK AO2 LTG DSNT SE AND S T02790246
Pressure 29.94 in
Visibility 10.0 miles
Clouds Clear
Heat Index 88 °F
Dew Point 76 °F
Humidity 86%
Rainfall 0.00 in
Snow Depth Not available.
6:08 AM 8:09 PM
Waning Gibbous, 83% visible
METAR KRNV 232015Z AUTO 16008KT 10SM CLR 28/25 A2994 RMK AO2 LTG DSNT SE AND S T02790246

10-Day Weather Forecast

Almanac

Astronomy

Jul. 23, 2016 Rise Set
Actual Time
Civil Twilight
Nautical Twilight
Astronomical Twilight
Moon
Length of Visible Light
Length of Day
Tomorrow will be .
, % of the Moon is Illuminated

Today's Extremes

State Highs State Lows

Community

WunderPhotos

Upload Photos

1,926,916 photos uploaded!

WunderBlog® & News

Nearby

Air Quality

  Air Quality AQ Index Pollutant
Not available.

Snow Depth

Station Depth Elevation

Earthquake Activity

City Distance Mag. Time & Date
Minimum magnitude displayed is 2.5.

Coastal Water Temperatures

Place Temperature

Stations

Nearby Weather Stations

Station Location Temp. Windchill Dew Point Humidity Wind Precip. Elev Updated Type
                   

Watches & Warnings

Heat Advisory
Issued: 3:03 PM CDT Jul. 23, 2016 – National Weather Service

... Heat advisory remains in effect until 7 PM CDT this evening...

* temperature... highs in the middle to upper 90s combined with
high humidity levels will result in heat index readings from
near 110 degrees.

* Impacts... heat stress will reach dangerous levels and could
lead to heat exhaustion or heat stroke for those working
outdoors.

Precautionary/preparedness actions... take extra precautions... if
you work or spend time outside. When possible... reschedule
strenuous activities to early morning or evening. Know the signs
and symptoms of heat exhaustion and heat stroke. Wear light
weight and loose fitting clothing when possible and drink plenty
of water.



Dl